createdAt,value
2023-01-13T00:00:38.762Z,3.17
2023-01-13T00:03:07.100Z,3.10
2023-01-13T00:05:35.356Z,4.05
2023-01-13T00:08:05.407Z,2.95
2023-01-13T00:10:33.824Z,4.40
2023-01-13T00:13:02.462Z,2.47
2023-01-13T00:15:31.790Z,3.03
2023-01-13T00:18:00.388Z,3.03
2023-01-13T00:20:28.822Z,4.43
2023-01-13T00:22:58.160Z,3.50
2023-01-13T00:25:26.038Z,5.50
2023-01-13T00:27:54.870Z,4.78
2023-01-13T00:30:22.783Z,4.15
2023-01-13T00:32:52.092Z,4.20
2023-01-13T00:35:20.605Z,4.85
2023-01-13T00:37:48.592Z,4.25
2023-01-13T00:40:16.535Z,6.72
2023-01-13T00:43:02.788Z,3.50
2023-01-13T00:45:30.770Z,4.50
2023-01-13T00:48:00.087Z,2.13
2023-01-13T00:50:30.634Z,1.05
2023-01-13T00:53:01.263Z,0.88
2023-01-13T00:55:31.983Z,1.02
2023-01-13T00:58:03.492Z,1.80
2023-01-13T01:00:32.317Z,1.75
2023-01-13T01:03:01.695Z,0.73
2023-01-13T01:05:30.131Z,1.98
2023-01-13T01:07:58.418Z,1.20
2023-01-13T01:10:26.499Z,1.23
2023-01-13T01:12:54.414Z,2.00
2023-01-13T01:15:22.413Z,2.40
2023-01-13T01:17:50.299Z,2.13
2023-01-13T01:20:20.384Z,1.80
2023-01-13T01:22:48.298Z,0.60
2023-01-13T01:25:16.744Z,1.40
2023-01-13T01:27:45.115Z,2.17
2023-01-13T01:30:14.112Z,1.23
2023-01-13T01:32:42.186Z,2.80
2023-01-13T01:35:10.881Z,2.78
2023-01-13T01:37:40.181Z,2.05
2023-01-13T01:40:09.567Z,3.45
2023-01-13T01:43:07.202Z,2.33
2023-01-13T01:45:35.285Z,1.75
2023-01-13T01:48:05.831Z,2.92
2023-01-13T01:50:35.004Z,3.83
2023-01-13T01:53:08.247Z,2.25
2023-01-13T01:55:38.167Z,4.53
2023-01-13T01:58:11.876Z,3.40
2023-01-13T02:00:40.774Z,2.92
2023-01-13T02:03:10.536Z,4.13
2023-01-13T02:05:39.600Z,5.30
2023-01-13T02:08:11.359Z,1.48
2023-01-13T02:10:41.246Z,3.63
2023-01-13T02:15:43.696Z,1.90
2023-01-13T02:18:24.715Z,1.92
2023-01-13T02:21:19.615Z,2.75
2023-01-13T02:24:34.744Z,4.90
2023-01-13T02:27:34.739Z,5.95
2023-01-13T02:30:32.448Z,4.47
2023-01-13T02:33:14.112Z,5.00
2023-01-13T02:35:49.210Z,4.43
2023-01-13T02:38:21.890Z,4.80
2023-01-13T02:40:58.531Z,3.60
2023-01-13T02:43:50.854Z,5.82
2023-01-13T02:46:27.981Z,5.72
2023-01-13T02:49:01.549Z,5.25
2023-01-13T02:51:31.805Z,5.47
2023-01-13T02:54:03.243Z,5.90
2023-01-13T02:56:33.310Z,3.72
2023-01-13T03:01:32.016Z,6.82
2023-01-13T03:06:43.603Z,4.32
2023-01-13T03:09:20.372Z,8.15
2023-01-13T03:12:05.627Z,6.47
2023-01-13T03:14:38.949Z,5.35
2023-01-13T03:17:23.704Z,5.72
2023-01-13T03:20:03.139Z,4.75
2023-01-13T03:22:36.299Z,3.40
2023-01-13T03:25:13.106Z,5.82
2023-01-13T03:27:49.018Z,5.63
2023-01-13T03:30:22.530Z,9.02
2023-01-13T03:32:55.204Z,7.35
2023-01-13T03:35:26.953Z,4.88
2023-01-13T03:38:00.692Z,9.90
2023-01-13T03:40:34.083Z,5.72
2023-01-13T03:43:27.625Z,8.10
2023-01-13T03:46:00.470Z,6.82
2023-01-13T03:48:34.244Z,7.88
2023-01-13T03:51:08.098Z,8.98
2023-01-13T03:53:40.706Z,8.10
2023-01-13T03:56:13.119Z,5.38
2023-01-13T03:58:46.991Z,8.40
2023-01-13T04:01:20.004Z,6.78
2023-01-13T04:03:55.166Z,11.45
2023-01-13T04:06:32.731Z,9.88
2023-01-13T04:09:08.975Z,9.68
2023-01-13T04:11:43.835Z,8.27
2023-01-13T04:14:14.654Z,10.35
2023-01-13T04:16:43.259Z,10.95
2023-01-13T04:19:12.548Z,7.32
2023-01-13T04:21:41.530Z,10.55
2023-01-13T04:24:10.092Z,9.48
2023-01-13T04:26:37.981Z,9.57
2023-01-13T04:29:06.547Z,8.50
2023-01-13T04:31:34.474Z,7.55
2023-01-13T04:34:02.412Z,8.75
2023-01-13T04:36:32.149Z,11.38
2023-01-13T04:39:00.140Z,13.18
2023-01-13T04:41:29.007Z,6.82
2023-01-13T04:43:56.908Z,9.75
2023-01-13T04:46:24.820Z,10.13
2023-01-13T04:48:53.211Z,9.98
2023-01-13T04:51:21.724Z,8.18
2023-01-13T04:53:52.256Z,8.93
2023-01-13T04:56:20.774Z,11.50
2023-01-13T04:58:48.676Z,8.50
2023-01-13T05:01:17.219Z,10.18
2023-01-13T05:03:45.665Z,10.50
2023-01-13T05:06:13.524Z,8.73
2023-01-13T05:08:41.850Z,11.38
2023-01-13T05:11:25.426Z,11.00
2023-01-13T05:14:10.597Z,11.63
2023-01-13T05:16:58.755Z,11.95
2023-01-13T05:19:26.913Z,12.68
2023-01-13T05:22:13.022Z,12.90
2023-01-13T05:24:58.909Z,13.20
2023-01-13T05:27:29.525Z,8.20
2023-01-13T05:29:57.691Z,9.65
2023-01-13T05:32:28.015Z,7.43
2023-01-13T05:34:57.297Z,7.20
2023-01-13T05:37:25.756Z,5.53
2023-01-13T05:40:12.133Z,7.97
2023-01-13T05:42:59.176Z,10.23
2023-01-13T05:45:28.344Z,4.30
2023-01-13T05:47:56.313Z,5.28
2023-01-13T05:50:24.739Z,15.10
2023-01-13T05:52:53.057Z,6.45
2023-01-13T05:55:20.950Z,6.65
2023-01-13T05:57:51.413Z,5.35
2023-01-13T06:00:20.543Z,6.28
2023-01-13T06:02:49.920Z,5.53
2023-01-13T06:05:18.055Z,4.03
2023-01-13T06:07:46.028Z,4.18
2023-01-13T06:10:14.027Z,4.03
2023-01-13T06:12:42.023Z,6.93
2023-01-13T06:15:12.153Z,7.07
2023-01-13T06:17:40.949Z,5.95
2023-01-13T06:20:10.217Z,5.72
2023-01-13T06:22:40.782Z,6.38
2023-01-13T06:25:13.335Z,6.28
2023-01-13T06:27:42.360Z,7.97
2023-01-13T06:30:12.973Z,6.20
2023-01-13T06:32:46.819Z,6.72
2023-01-13T06:35:18.876Z,7.97
2023-01-13T06:37:50.897Z,5.15
2023-01-13T06:40:19.372Z,5.88
2023-01-13T06:43:05.187Z,9.70
2023-01-13T06:45:34.599Z,4.72
2023-01-13T06:48:03.164Z,3.70
2023-01-13T06:50:31.150Z,7.13
2023-01-13T06:52:59.082Z,7.13
2023-01-13T06:55:27.087Z,6.68
2023-01-13T06:57:57.507Z,4.85
2023-01-13T07:00:27.226Z,6.20
2023-01-13T07:03:07.164Z,6.40
2023-01-13T07:05:35.649Z,3.58
2023-01-13T07:08:03.677Z,7.47
2023-01-13T07:10:32.230Z,8.13
2023-01-13T07:13:20.459Z,5.53
2023-01-13T07:15:58.846Z,9.95
2023-01-13T07:18:32.012Z,8.60
2023-01-13T07:21:02.744Z,10.02
2023-01-13T07:23:32.722Z,4.20
2023-01-13T07:28:30.559Z,9.32
2023-01-13T07:30:59.761Z,7.88
2023-01-13T07:33:32.854Z,7.00
2023-01-13T07:36:03.465Z,8.50
2023-01-13T07:38:32.805Z,11.15
2023-01-13T07:41:22.941Z,5.38
2023-01-13T07:43:50.183Z,7.05
2023-01-13T07:46:20.024Z,4.82
2023-01-13T07:48:50.018Z,8.00
2023-01-13T07:51:18.221Z,5.05
2023-01-13T07:53:46.192Z,8.05
2023-01-13T07:56:14.284Z,6.97
2023-01-13T07:58:43.173Z,7.60
2023-01-13T08:01:12.344Z,8.90
2023-01-13T08:03:41.338Z,7.78
2023-01-13T08:06:12.838Z,7.43
2023-01-13T08:08:40.917Z,4.90
2023-01-13T08:11:10.079Z,8.77
2023-01-13T08:13:38.935Z,7.38
2023-01-13T08:16:08.860Z,5.95
2023-01-13T08:18:38.554Z,6.95
2023-01-13T08:21:08.536Z,8.50
2023-01-13T08:23:39.023Z,6.80
2023-01-13T08:26:08.572Z,6.90
2023-01-13T08:28:36.493Z,8.00
2023-01-13T08:31:06.595Z,6.28
2023-01-13T08:33:34.877Z,5.47
2023-01-13T08:36:05.407Z,4.88
2023-01-13T08:38:34.992Z,2.30
2023-01-13T08:41:10.253Z,7.55
2023-01-13T08:43:40.469Z,5.82
2023-01-13T08:46:08.591Z,5.63
2023-01-13T08:48:36.611Z,6.93
2023-01-13T08:51:06.071Z,10.00
2023-01-13T08:53:34.080Z,8.23
2023-01-13T08:56:02.522Z,6.63
2023-01-13T08:58:33.819Z,6.82
2023-01-13T09:01:06.626Z,5.25
2023-01-13T09:03:34.649Z,7.90
2023-01-13T09:06:03.241Z,8.88
2023-01-13T09:08:31.248Z,9.13
2023-01-13T09:10:59.240Z,5.43
2023-01-13T09:13:26.765Z,5.22
2023-01-13T09:15:57.200Z,6.32
2023-01-13T09:18:25.624Z,9.18
2023-01-13T09:20:53.871Z,5.72
2023-01-13T09:23:21.880Z,7.63
2023-01-13T09:25:50.225Z,6.22
2023-01-13T09:28:18.822Z,6.35
2023-01-13T09:30:46.858Z,6.03
2023-01-13T09:33:34.536Z,8.18
2023-01-13T09:36:02.760Z,10.05
2023-01-13T09:38:31.166Z,11.07
2023-01-13T09:40:59.092Z,9.07
2023-01-13T09:43:53.329Z,6.32
2023-01-13T09:46:41.286Z,6.93
2023-01-13T09:49:21.164Z,13.60
2023-01-13T09:51:55.721Z,7.63
2023-01-13T09:54:32.808Z,7.55
2023-01-13T09:57:01.118Z,8.77
2023-01-13T09:59:33.032Z,6.15
2023-01-13T10:02:13.938Z,6.72
2023-01-13T10:04:44.204Z,12.43
2023-01-13T10:07:15.428Z,11.30
2023-01-13T10:09:51.170Z,5.03
2023-01-13T10:12:41.960Z,8.43
2023-01-13T10:15:15.905Z,8.93
2023-01-13T10:17:52.164Z,4.93
2023-01-13T10:20:26.546Z,7.85
2023-01-13T10:23:05.672Z,4.72
2023-01-13T10:25:50.568Z,6.75
2023-01-13T10:28:20.374Z,10.52
2023-01-13T10:30:49.012Z,7.30
2023-01-13T10:33:20.599Z,5.77
2023-01-13T10:35:59.194Z,7.25
2023-01-13T10:38:31.622Z,7.03
2023-01-13T10:41:01.030Z,8.35
2023-01-13T10:46:05.434Z,8.95
2023-01-13T10:48:39.616Z,10.40
2023-01-13T10:51:19.607Z,7.25
2023-01-13T10:53:52.719Z,11.93
2023-01-13T10:56:23.758Z,9.98
2023-01-13T10:58:52.278Z,10.10
2023-01-13T11:01:30.890Z,9.17
2023-01-13T11:03:58.896Z,9.27
2023-01-13T11:06:31.217Z,6.05
2023-01-13T11:08:59.389Z,8.40
2023-01-13T11:11:39.599Z,8.43
2023-01-13T11:14:32.803Z,8.98
2023-01-13T11:17:05.457Z,6.70
2023-01-13T11:19:37.892Z,6.88
2023-01-13T11:22:12.782Z,7.22
2023-01-13T11:24:46.673Z,8.30
2023-01-13T11:27:18.794Z,7.75
2023-01-13T11:30:00.542Z,8.70
2023-01-13T11:32:32.370Z,9.50
2023-01-13T11:35:05.914Z,10.90
2023-01-13T11:37:41.237Z,9.35
2023-01-13T11:40:17.747Z,8.98
2023-01-13T11:42:50.924Z,9.00
2023-01-13T11:45:23.037Z,9.48
2023-01-13T11:47:57.653Z,9.90
2023-01-13T11:50:31.974Z,8.52
2023-01-13T11:53:13.124Z,10.15
2023-01-13T11:55:54.893Z,9.93
2023-01-13T11:59:03.958Z,15.93
2023-01-13T12:01:50.811Z,12.93
2023-01-13T12:04:37.071Z,10.23
2023-01-13T12:07:15.695Z,7.97
2023-01-13T12:10:05.041Z,5.18
2023-01-13T12:12:48.264Z,13.43
2023-01-13T12:16:07.031Z,9.40
2023-01-13T12:19:14.266Z,11.15
2023-01-13T12:21:57.771Z,10.40
2023-01-13T12:24:31.239Z,8.88
2023-01-13T12:27:05.676Z,10.82
2023-01-13T12:29:36.610Z,7.60
2023-01-13T12:32:08.233Z,7.35
2023-01-13T12:34:49.288Z,6.63
2023-01-13T12:37:25.100Z,7.18
2023-01-13T12:40:03.569Z,13.48
2023-01-13T12:42:57.875Z,8.70
2023-01-13T12:45:43.706Z,6.90
2023-01-13T12:48:49.518Z,8.45
2023-01-13T12:51:25.860Z,7.53
2023-01-13T12:53:55.584Z,13.27
2023-01-13T12:56:40.736Z,5.55
2023-01-13T12:59:51.512Z,8.95
2023-01-13T13:02:35.774Z,9.63
2023-01-13T13:05:40.954Z,7.05
2023-01-13T13:08:18.231Z,7.07
2023-01-13T13:10:58.571Z,9.88
2023-01-13T13:13:43.106Z,5.20
2023-01-13T13:16:38.950Z,6.15
2023-01-13T13:19:49.948Z,12.18
2023-01-13T13:22:40.098Z,7.32
2023-01-13T13:25:27.857Z,7.60
2023-01-13T13:28:20.191Z,11.55
2023-01-13T13:31:09.882Z,9.60
2023-01-13T13:33:53.346Z,7.50
2023-01-13T13:36:42.683Z,8.43
2023-01-13T13:39:39.996Z,8.20
2023-01-13T13:42:32.482Z,5.80
2023-01-13T13:45:19.537Z,5.80
2023-01-13T13:47:48.332Z,7.43
2023-01-13T13:50:19.706Z,4.53
2023-01-13T13:52:55.663Z,9.77
2023-01-13T13:55:25.874Z,6.53
2023-01-13T13:57:57.742Z,6.82
2023-01-13T14:00:31.063Z,6.35
2023-01-13T14:03:02.043Z,8.43
2023-01-13T14:05:31.864Z,6.00
2023-01-13T14:08:04.684Z,5.25
2023-01-13T14:10:37.462Z,7.68
2023-01-13T14:13:15.967Z,9.27
2023-01-13T14:15:44.938Z,11.52
2023-01-13T14:18:16.668Z,3.47
2023-01-13T14:20:44.953Z,6.28
2023-01-13T14:23:19.572Z,3.88
2023-01-13T14:25:51.308Z,6.47
2023-01-13T14:28:24.259Z,5.13
2023-01-13T14:30:56.276Z,2.47
2023-01-13T14:33:34.071Z,4.65
2023-01-13T14:36:15.500Z,4.88
2023-01-13T14:38:47.138Z,2.70
2023-01-13T14:41:25.450Z,4.45
2023-01-13T14:43:57.941Z,4.07
2023-01-13T14:46:37.679Z,6.90
2023-01-13T14:49:05.785Z,8.13
2023-01-13T14:51:33.886Z,7.15
2023-01-13T14:54:04.214Z,8.10
2023-01-13T14:56:53.743Z,7.60
2023-01-13T15:02:19.445Z,5.35
2023-01-13T15:04:48.330Z,5.40
2023-01-13T15:07:25.694Z,5.15
2023-01-13T15:09:57.839Z,7.60
2023-01-13T15:12:35.708Z,7.15
2023-01-13T15:15:07.460Z,6.45
2023-01-13T15:17:35.856Z,5.40
2023-01-13T15:20:04.312Z,5.70
2023-01-13T15:22:32.704Z,5.82
2023-01-13T15:25:02.354Z,6.20
2023-01-13T15:29:58.887Z,6.55
2023-01-13T15:32:27.627Z,3.95
2023-01-13T15:34:55.546Z,5.53
2023-01-13T15:37:25.998Z,2.20
2023-01-13T15:39:54.043Z,1.98
2023-01-13T15:42:41.200Z,2.88
2023-01-13T15:45:31.007Z,7.20
2023-01-13T15:48:00.135Z,4.18
2023-01-13T15:50:28.836Z,4.43
2023-01-13T15:52:57.805Z,3.22
2023-01-13T15:55:25.742Z,11.30
2023-01-13T15:57:55.586Z,8.30
2023-01-13T16:00:24.693Z,5.35
2023-01-13T16:02:52.794Z,7.97
2023-01-13T16:05:20.847Z,15.25
2023-01-13T16:07:49.715Z,7.68
2023-01-13T16:10:21.566Z,7.85
2023-01-13T16:12:49.748Z,5.78
2023-01-13T16:15:22.778Z,9.65
2023-01-13T16:17:56.559Z,5.75
2023-01-13T16:20:25.665Z,4.90
2023-01-13T16:22:54.108Z,7.47
2023-01-13T16:25:24.437Z,7.15
2023-01-13T16:27:53.802Z,8.25
2023-01-13T16:30:28.694Z,5.75
2023-01-13T16:32:57.565Z,5.95
2023-01-13T16:35:27.190Z,8.73
2023-01-13T16:37:58.952Z,7.53
2023-01-13T16:40:31.052Z,8.80
2023-01-13T16:43:01.109Z,5.75
2023-01-13T16:45:31.656Z,7.55
2023-01-13T16:47:59.801Z,9.50
2023-01-13T16:50:36.596Z,6.95
2023-01-13T16:53:05.639Z,5.57
2023-01-13T16:55:34.137Z,8.80
2023-01-13T16:58:02.299Z,7.40
2023-01-13T17:00:32.149Z,13.98
2023-01-13T17:03:02.056Z,6.20
2023-01-13T17:07:58.555Z,6.85
2023-01-13T17:10:26.753Z,5.90
2023-01-13T17:12:56.119Z,4.50
2023-01-13T17:15:25.865Z,5.13
2023-01-13T17:17:56.989Z,5.25
2023-01-13T17:20:24.940Z,2.28
2023-01-13T17:22:58.286Z,2.40
2023-01-13T17:25:27.845Z,5.07
2023-01-13T17:27:55.941Z,12.27
2023-01-13T17:30:24.832Z,3.58
2023-01-13T17:32:52.829Z,3.97
2023-01-13T17:35:30.382Z,7.93
2023-01-13T17:37:59.301Z,7.43
2023-01-13T17:40:27.401Z,10.32
2023-01-13T17:42:57.229Z,8.45
2023-01-13T17:45:25.609Z,5.10
2023-01-13T17:47:57.919Z,7.85
2023-01-13T17:50:28.779Z,9.60
2023-01-13T17:52:56.693Z,11.95
2023-01-13T17:55:25.050Z,10.48
2023-01-13T17:57:53.397Z,12.00
2023-01-13T18:00:22.133Z,14.88
2023-01-13T18:02:50.110Z,19.50
2023-01-13T18:05:19.074Z,11.82
2023-01-13T18:07:48.361Z,14.40
2023-01-13T18:10:17.988Z,10.27
2023-01-13T18:12:46.664Z,16.75
2023-01-13T18:15:14.627Z,14.15
2023-01-13T18:17:42.591Z,17.80
2023-01-13T18:20:33.364Z,8.98
2023-01-13T18:23:21.113Z,12.07
2023-01-13T18:26:21.469Z,12.15
2023-01-13T18:28:50.331Z,8.75
2023-01-13T18:31:18.267Z,14.50
2023-01-13T18:33:46.303Z,9.20
2023-01-13T18:36:14.532Z,10.73
2023-01-13T18:38:43.844Z,9.20
2023-01-13T18:41:26.607Z,9.13
2023-01-13T18:43:54.578Z,9.15
2023-01-13T18:46:23.307Z,9.15
2023-01-13T18:48:51.249Z,12.85
2023-01-13T18:51:19.105Z,12.82
2023-01-13T18:53:49.587Z,8.85
2023-01-13T18:56:18.021Z,7.85
2023-01-13T18:58:50.285Z,9.67
2023-01-13T19:01:22.364Z,7.53
2023-01-13T19:03:56.468Z,6.72
2023-01-13T19:06:26.049Z,9.27
2023-01-13T19:08:55.470Z,14.52
2023-01-13T19:11:25.391Z,7.68
2023-01-13T19:13:53.842Z,11.50
2023-01-13T19:16:22.482Z,10.65
2023-01-13T19:18:51.088Z,12.27
2023-01-13T19:21:18.968Z,8.40
2023-01-13T19:23:47.129Z,8.88
2023-01-13T19:26:16.888Z,19.10
2023-01-13T19:28:44.913Z,9.60
2023-01-13T19:31:15.538Z,11.43
2023-01-13T19:33:44.638Z,6.25
2023-01-13T19:36:13.342Z,12.40
2023-01-13T19:38:42.008Z,6.82
2023-01-13T19:41:33.139Z,7.55
2023-01-13T19:44:20.498Z,7.47
2023-01-13T19:46:48.934Z,12.20
2023-01-13T19:49:17.055Z,5.93
2023-01-13T19:51:45.011Z,6.85
2023-01-13T19:54:13.923Z,6.97
2023-01-13T19:56:41.843Z,11.70
2023-01-13T19:59:13.534Z,13.73
2023-01-13T20:01:41.702Z,10.88
2023-01-13T20:04:14.790Z,10.38
2023-01-13T20:06:42.764Z,5.22
2023-01-13T20:09:11.357Z,8.90
2023-01-13T20:11:40.122Z,7.97
2023-01-13T20:14:08.351Z,11.90
2023-01-13T20:16:37.618Z,8.35
2023-01-13T20:19:06.044Z,7.70
2023-01-13T20:21:34.553Z,4.43
2023-01-13T20:24:02.503Z,6.80
2023-01-13T20:26:30.519Z,6.65
2023-01-13T20:28:58.439Z,8.38
2023-01-13T20:31:26.474Z,7.88
2023-01-13T20:33:55.812Z,9.90
2023-01-13T20:36:28.049Z,5.90
2023-01-13T20:39:00.595Z,6.50
2023-01-13T20:41:47.619Z,4.85
2023-01-13T20:44:16.705Z,3.55
2023-01-13T20:46:45.804Z,7.32
2023-01-13T20:49:16.880Z,4.75
2023-01-13T20:51:45.341Z,4.07
2023-01-13T20:54:13.302Z,6.15
2023-01-13T20:56:42.196Z,3.72
2023-01-13T20:59:10.504Z,3.50
2023-01-13T21:01:38.990Z,2.67
2023-01-13T21:04:08.567Z,3.13
2023-01-13T21:06:38.235Z,2.42
2023-01-13T21:09:06.619Z,3.47
2023-01-13T21:11:52.256Z,1.55
2023-01-13T21:14:40.030Z,1.35
2023-01-13T21:17:30.004Z,2.83
2023-01-13T21:19:56.982Z,2.22
2023-01-13T21:22:26.302Z,1.67
2023-01-13T21:24:54.804Z,2.42
2023-01-13T21:27:22.751Z,4.50
2023-01-13T21:29:51.120Z,4.35
2023-01-13T21:32:19.807Z,6.35
2023-01-13T21:34:47.785Z,3.70
2023-01-13T21:37:16.038Z,4.50
2023-01-13T21:39:45.968Z,6.20
2023-01-13T21:45:18.876Z,4.38
2023-01-13T21:47:49.986Z,6.07
2023-01-13T21:50:20.982Z,5.40
2023-01-13T21:52:50.051Z,9.52
2023-01-13T21:55:24.298Z,5.60
2023-01-13T21:57:53.633Z,8.18
2023-01-13T22:00:23.532Z,8.27
2023-01-13T22:02:51.937Z,5.70
2023-01-13T22:05:24.051Z,7.18
2023-01-13T22:07:54.055Z,4.15
2023-01-13T22:10:25.036Z,5.88
2023-01-13T22:12:54.643Z,5.35
2023-01-13T22:15:27.085Z,4.75
2023-01-13T22:17:55.774Z,3.80
2023-01-13T22:20:24.165Z,6.00
2023-01-13T22:22:52.072Z,3.00
2023-01-13T22:25:21.765Z,5.03
2023-01-13T22:27:52.820Z,2.10
2023-01-13T22:30:21.878Z,6.18
2023-01-13T22:32:50.553Z,2.83
2023-01-13T22:35:18.805Z,3.80
2023-01-13T22:37:46.911Z,2.30
2023-01-13T22:40:15.120Z,6.32
2023-01-13T22:42:44.139Z,3.55
2023-01-13T22:45:15.270Z,8.38
2023-01-13T22:47:43.223Z,4.80
2023-01-13T22:50:12.809Z,3.97
2023-01-13T22:52:41.380Z,4.23
2023-01-13T22:55:09.899Z,5.63
2023-01-13T22:57:47.186Z,3.47
2023-01-13T23:00:20.212Z,2.95
2023-01-13T23:02:48.601Z,5.53
2023-01-13T23:05:16.713Z,4.78
2023-01-13T23:07:45.490Z,4.05
2023-01-13T23:10:13.493Z,5.40
2023-01-13T23:12:41.421Z,4.88
2023-01-13T23:15:10.915Z,8.25
2023-01-13T23:17:40.250Z,7.22
2023-01-13T23:20:09.203Z,4.15
2023-01-13T23:22:38.684Z,5.40
2023-01-13T23:25:07.413Z,7.90
2023-01-13T23:27:36.087Z,6.75
2023-01-13T23:30:04.960Z,8.82
2023-01-13T23:32:34.888Z,8.20
2023-01-13T23:35:05.139Z,6.57
2023-01-13T23:37:34.259Z,9.27
2023-01-13T23:40:03.463Z,6.72
2023-01-13T23:42:31.424Z,8.02
2023-01-13T23:44:59.782Z,5.05
2023-01-13T23:47:27.648Z,6.95
2023-01-13T23:49:55.984Z,7.15
2023-01-13T23:52:25.754Z,4.57
2023-01-13T23:54:53.721Z,6.60
2023-01-13T23:57:21.645Z,3.25
2023-01-13T23:59:50.550Z,5.32
